Time;durP1;ratioP1;P1;durP2;ratioP2;P2;SDS_P1;SDS_P2;PMS_P1;PMS_P2;Temp;Humidity;BMP_temperature;BMP_pressure;BME280_temperature;BME280_humidity;BME280_pressure;Samples;Min_cycle;Max_cycle;Signal;HPM_P1;HPM_P2
2022/10/15 00:12:02;;;;;;;73.00;37.40;;;;;;;12.08;100.00;100197.26;640082;1305;140026;-81
2022/10/15 00:27:06;;;;;;;74.00;36.80;;;;;;;12.07;100.00;100193.00;640102;1298;139920;-81
2022/10/15 00:42:10;;;;;;;71.70;37.60;;;;;;;12.17;100.00;100173.98;639495;1297;139868;-81
2022/10/15 00:57:13;;;;;;;61.50;32.80;;;;;;;12.45;100.00;100158.14;639108;1305;1086975;-81
2022/10/15 01:12:36;;;;;;;63.20;33.90;;;;;;;12.50;100.00;100138.45;639928;1306;139335;-81
2022/10/15 01:27:51;;;;;;;62.30;32.90;;;;;;;12.54;100.00;100121.98;639510;1313;140734;-81
2022/10/15 01:43:05;;;;;;;69.90;37.90;;;;;;;12.47;100.00;100106.89;640548;1311;140607;-82
2022/10/15 01:58:30;;;;;;;70.10;39.00;;;;;;;12.42;100.00;100108.53;640667;1308;139599;-81
2022/10/15 02:13:43;;;;;;;75.80;38.20;;;;;;;12.31;100.00;100087.78;639508;1312;140405;-81
2022/10/15 02:28:52;;;;;;;63.70;34.70;;;;;;;12.15;100.00;100075.94;640611;1310;140517;-81
2022/10/15 02:43:56;;;;;;;67.60;39.40;;;;;;;12.13;100.00;100073.66;640479;1294;139719;-81
2022/10/15 02:58:59;;;;;;;77.40;39.00;;;;;;;12.10;100.00;100068.77;640778;1291;140211;-81
2022/10/15 03:14:03;;;;;;;74.30;40.90;;;;;;;12.09;100.00;100060.77;640852;1303;139308;-81
2022/10/15 03:29:07;;;;;;;59.60;33.70;;;;;;;12.04;100.00;100055.66;640633;1304;139846;-81
2022/10/15 03:44:21;;;;;;;77.60;43.10;;;;;;;11.90;100.00;100044.75;640908;1295;139285;-81
2022/10/15 03:59:33;;;;;;;72.60;40.00;;;;;;;11.82;100.00;100050.70;639556;1307;139340;-81
2022/10/15 04:14:39;;;;;;;64.90;35.40;;;;;;;11.86;100.00;100051.11;639975;1306;141694;-81
2022/10/15 04:29:47;;;;;;;67.90;36.70;;;;;;;11.96;100.00;100044.85;640163;1285;140477;-81
2022/10/15 04:44:51;;;;;;;67.10;37.40;;;;;;;11.99;100.00;100050.55;639597;1306;140937;-80
2022/10/15 04:59:54;;;;;;;94.10;46.30;;;;;;;12.02;100.00;100038.81;640338;1301;139338;-81
2022/10/15 05:15:10;;;;;;;170.10;103.90;;;;;;;12.05;100.00;100030.86;641105;1305;140197;-81
2022/10/15 05:30:14;;;;;;;99.50;53.80;;;;;;;12.08;100.00;100019.88;640281;1305;139589;-81
2022/10/15 05:45:25;;;;;;;91.50;46.30;;;;;;;12.07;100.00;100008.04;640692;1305;140717;-81
2022/10/15 06:00:31;;;;;;;86.30;45.10;;;;;;;12.10;100.00;99994.64;639963;1298;139484;-81
2022/10/15 06:15:42;;;;;;;81.90;43.20;;;;;;;12.15;100.00;100002.39;639710;1304;139732;-81
2022/10/15 06:30:45;;;;;;;81.10;43.90;;;;;;;12.22;100.00;99999.24;640315;1298;141257;-81
2022/10/15 06:45:48;;;;;;;91.90;47.50;;;;;;;12.57;100.00;100005.76;640512;1297;140849;-81
2022/10/15 07:01:05;;;;;;;73.50;41.70;;;;;;;13.33;100.00;100013.77;641361;1291;139669;-81
2022/10/15 07:16:10;;;;;;;76.40;42.40;;;;;;;13.62;100.00;100020.11;640399;1296;139192;-81
2022/10/15 07:31:13;;;;;;;206.60;94.30;;;;;;;14.29;100.00;100026.00;641538;1310;140444;-82
2022/10/15 07:46:16;;;;;;;75.20;41.50;;;;;;;15.20;100.00;100030.73;640317;1305;140028;-82
2022/10/15 08:01:20;;;;;;;88.60;53.80;;;;;;;15.50;100.00;100040.29;643588;1298;139326;-81
2022/10/15 08:16:25;;;;;;;71.80;39.30;;;;;;;15.59;100.00;100026.73;642587;1304;141349;-81
2022/10/15 08:31:34;;;;;;;57.50;37.50;;;;;;;15.85;100.00;100020.77;641283;1303;141199;-81
2022/10/15 08:46:48;;;;;;;65.30;37.30;;;;;;;16.86;100.00;100022.21;646838;1289;140223;-82
2022/10/15 09:02:02;;;;;;;63.10;40.20;;;;;;;17.00;99.72;100018.02;644484;1305;139386;-82
2022/10/15 09:17:35;;;;;;;60.50;36.10;;;;;;;17.00;98.76;99999.92;640522;1288;139547;-81
2022/10/15 09:32:50;;;;;;;67.30;38.40;;;;;;;17.19;96.40;99996.86;640490;1297;140473;-81
2022/10/15 09:47:59;;;;;;;64.40;39.10;;;;;;;17.51;95.00;100007.10;639949;1298;138988;-81
2022/10/15 10:03:08;;;;;;;62.20;36.60;;;;;;;17.50;93.23;99997.09;639458;1304;139506;-81
2022/10/15 10:18:21;;;;;;;61.00;33.70;;;;;;;18.70;89.70;99982.77;639515;1304;139769;-81
2022/10/15 10:33:27;;;;;;;76.00;41.30;;;;;;;19.20;85.97;99981.69;639354;1303;138798;-81
2022/10/15 10:48:51;;;;;;;59.90;34.20;;;;;;;18.76;85.53;99979.13;640203;1310;139033;-79
2022/10/15 11:03:55;;;;;;;53.90;31.80;;;;;;;18.48;87.45;99972.80;639871;1298;139127;-78
2022/10/15 11:19:25;;;;;;;54.20;31.30;;;;;;;19.54;85.62;99968.75;639916;1307;138927;-79
2022/10/15 11:35:11;;;;;;;55.30;32.90;;;;;;;20.27;80.24;99984.41;643749;1310;140581;-80
2022/10/15 11:50:29;;;;;;;48.70;29.40;;;;;;;19.43;82.05;99978.41;643188;1297;138843;-79
2022/10/15 12:05:42;;;;;;;48.30;30.80;;;;;;;19.66;81.85;99964.91;640994;1287;139407;-79
2022/10/15 12:20:46;;;;;;;43.40;27.80;;;;;;;20.01;81.47;99958.40;646091;1302;139284;-80
2022/10/15 12:35:54;;;;;;;43.20;26.70;;;;;;;19.62;81.70;99956.46;643428;1297;138775;-79
2022/10/15 12:51:24;;;;;;;41.00;26.40;;;;;;;19.03;81.47;99962.65;639875;1290;139891;-80
2022/10/15 13:06:37;;;;;;;43.80;28.30;;;;;;;18.95;83.49;99964.08;640030;1289;139503;-79
2022/10/15 13:21:53;;;;;;;47.50;27.80;;;;;;;19.05;86.64;99964.34;640161;1297;140661;-78
2022/10/15 13:36:59;;;;;;;44.20;28.50;;;;;;;18.79;89.63;99964.40;640032;1310;140578;-78
2022/10/15 13:52:03;;;;;;;42.70;27.50;;;;;;;18.68;89.96;99961.80;645121;1288;139828;-77
2022/10/15 14:07:25;;;;;;;41.60;27.90;;;;;;;18.58;90.78;99953.19;640489;1282;139730;-78
2022/10/15 14:22:30;;;;;;;43.60;28.00;;;;;;;18.51;91.63;99957.01;640931;1296;140291;-78
2022/10/15 14:37:40;;;;;;;48.10;28.20;;;;;;;18.37;92.75;99948.91;640422;1288;139177;-78
2022/10/15 14:52:50;;;;;;;47.30;27.90;;;;;;;18.27;93.01;99950.23;641536;1289;140100;-80
2022/10/15 15:07:55;;;;;;;42.20;26.50;;;;;;;18.19;93.33;99956.23;640798;1294;140933;-78
2022/10/15 15:22:59;;;;;;;45.40;28.70;;;;;;;18.09;94.40;99967.75;640937;1297;139631;-78
2022/10/15 15:38:07;;;;;;;45.50;28.90;;;;;;;17.98;95.61;99980.41;640291;1295;140004;-78
2022/10/15 15:53:11;;;;;;;47.60;27.60;;;;;;;17.78;96.84;99983.88;639947;1296;139890;-78
2022/10/15 16:08:14;;;;;;;43.20;26.30;;;;;;;17.60;98.32;99978.59;640572;1300;140759;-78
2022/10/15 16:23:18;;;;;;;50.40;29.70;;;;;;;17.41;99.86;99997.78;640465;1295;140428;-79
2022/10/15 16:38:22;;;;;;;45.20;27.30;;;;;;;17.34;100.00;100012.42;640255;1303;139224;-78
2022/10/15 16:53:27;;;;;;;49.80;30.20;;;;;;;17.22;100.00;100024.27;640156;1291;140276;-79
2022/10/15 17:08:43;;;;;;;101.70;54.70;;;;;;;17.06;100.00;100037.55;640962;1287;140478;-78
2022/10/15 17:23:49;;;;;;;48.90;31.60;;;;;;;16.80;100.00;100044.96;640222;1289;139937;-79
2022/10/15 17:38:58;;;;;;;50.20;28.60;;;;;;;16.67;100.00;100071.02;640231;1288;141484;-80
2022/10/15 17:54:01;;;;;;;48.20;28.00;;;;;;;16.51;100.00;100084.52;640235;1301;140025;-79
2022/10/15 18:09:04;;;;;;;52.30;31.40;;;;;;;16.52;100.00;100085.03;641147;1297;140369;-80
2022/10/15 18:24:07;;;;;;;47.20;30.20;;;;;;;16.54;100.00;100096.21;642294;1294;139941;-78
2022/10/15 18:39:11;;;;;;;53.60;30.90;;;;;;;16.53;100.00;100106.56;640016;1291;140188;-80
2022/10/15 18:54:14;;;;;;;120.40;75.20;;;;;;;16.51;100.00;100116.83;640562;1301;139442;-80
2022/10/15 19:09:20;;;;;;;112.30;71.50;;;;;;;16.46;100.00;100121.02;641804;1295;139582;-79
2022/10/15 19:24:24;;;;;;;53.00;33.70;;;;;;;16.42;100.00;100117.86;640439;1294;141188;-79
2022/10/15 19:39:27;;;;;;;53.00;36.20;;;;;;;16.38;100.00;100121.14;640609;1296;140069;-79
2022/10/15 19:54:34;;;;;;;52.00;33.50;;;;;;;16.34;100.00;100129.73;639743;1296;140849;-79
2022/10/15 20:09:37;;;;;;;52.00;34.20;;;;;;;16.28;100.00;100127.43;640081;1312;140682;-79
2022/10/15 20:24:40;;;;;;;57.10;34.00;;;;;;;16.26;100.00;100142.16;639704;1305;139961;-79
2022/10/15 20:39:44;;;;;;;45.40;31.90;;;;;;;16.24;100.00;100158.71;640420;1305;140612;-78
2022/10/15 20:54:50;;;;;;;54.70;35.60;;;;;;;16.25;100.00;100168.67;640294;1296;140542;-78
2022/10/15 21:09:53;;;;;;;53.90;30.40;;;;;;;16.29;100.00;100177.24;646911;1305;139711;-79
2022/10/15 21:24:56;;;;;;;54.10;31.20;;;;;;;16.33;100.00;100178.55;640761;1301;140929;-80
2022/10/15 21:40:00;;;;;;;51.70;32.00;;;;;;;16.30;100.00;100183.33;640315;1298;139997;-79
2022/10/15 21:55:04;;;;;;;54.80;33.50;;;;;;;16.30;100.00;100189.80;640641;1303;140316;-79
2022/10/15 22:10:07;;;;;;;55.30;34.70;;;;;;;16.33;100.00;100191.77;640501;1312;140330;-79
2022/10/15 22:25:10;;;;;;;64.10;37.90;;;;;;;16.12;100.00;100212.70;639948;1302;140162;-79
2022/10/15 22:40:13;;;;;;;69.80;41.00;;;;;;;15.86;100.00;100215.07;639548;1303;140316;-81
2022/10/15 22:55:16;;;;;;;65.70;40.30;;;;;;;15.71;100.00;100227.42;639558;1309;140175;-83
2022/10/15 23:10:20;;;;;;;73.10;42.60;;;;;;;15.58;100.00;100244.58;640624;1308;140277;-84
2022/10/15 23:25:23;;;;;;;68.10;39.50;;;;;;;15.52;100.00;100258.23;640982;1312;141501;-84
2022/10/15 23:40:26;;;;;;;63.50;40.30;;;;;;;15.57;100.00;100253.23;640767;1307;140753;-85
2022/10/15 23:55:29;;;;;;;68.30;39.80;;;;;;;15.52;100.00;100256.98;641201;1313;139738;-85
